sensor_id;sensor_type;location;lat;lon;timestamp;P1;durP1;ratioP1;P2;durP2;ratioP2
12556;SDS011;6344;49.932;8.308;2022-08-01T00:01:35;2.97;;;2.77;;
12556;SDS011;6344;49.932;8.308;2022-08-01T00:04:02;3.47;;;3.27;;
12556;SDS011;6344;49.932;8.308;2022-08-01T00:06:31;3.73;;;3.33;;
12556;SDS011;6344;49.932;8.308;2022-08-01T00:08:58;4.30;;;3.90;;
12556;SDS011;6344;49.932;8.308;2022-08-01T00:11:25;3.30;;;3.10;;
12556;SDS011;6344;49.932;8.308;2022-08-01T00:13:52;3.77;;;3.47;;
12556;SDS011;6344;49.932;8.308;2022-08-01T00:16:19;3.13;;;2.93;;
12556;SDS011;6344;49.932;8.308;2022-08-01T00:18:47;4.47;;;3.60;;
12556;SDS011;6344;49.932;8.308;2022-08-01T00:21:14;3.40;;;3.20;;
12556;SDS011;6344;49.932;8.308;2022-08-01T00:23:43;3.53;;;3.30;;
12556;SDS011;6344;49.932;8.308;2022-08-01T00:26:10;2.93;;;2.73;;
12556;SDS011;6344;49.932;8.308;2022-08-01T00:28:38;3.03;;;2.80;;
12556;SDS011;6344;49.932;8.308;2022-08-01T00:31:05;3.23;;;3.03;;
12556;SDS011;6344;49.932;8.308;2022-08-01T00:33:32;3.03;;;2.83;;
12556;SDS011;6344;49.932;8.308;2022-08-01T00:35:59;2.73;;;2.53;;
12556;SDS011;6344;49.932;8.308;2022-08-01T00:38:26;2.90;;;2.70;;
12556;SDS011;6344;49.932;8.308;2022-08-01T00:40:55;3.40;;;2.60;;
12556;SDS011;6344;49.932;8.308;2022-08-01T00:43:22;3.00;;;2.80;;
12556;SDS011;6344;49.932;8.308;2022-08-01T00:45:49;2.67;;;2.47;;
12556;SDS011;6344;49.932;8.308;2022-08-01T00:48:16;2.90;;;2.60;;
12556;SDS011;6344;49.932;8.308;2022-08-01T00:50:43;5.50;;;2.63;;
12556;SDS011;6344;49.932;8.308;2022-08-01T00:53:10;4.60;;;2.63;;
12556;SDS011;6344;49.932;8.308;2022-08-01T00:55:37;2.50;;;2.40;;
12556;SDS011;6344;49.932;8.308;2022-08-01T00:58:06;2.47;;;2.23;;
12556;SDS011;6344;49.932;8.308;2022-08-01T01:00:33;2.23;;;2.03;;
12556;SDS011;6344;49.932;8.308;2022-08-01T01:03:01;6.63;;;2.50;;
12556;SDS011;6344;49.932;8.308;2022-08-01T01:05:29;2.90;;;2.60;;
12556;SDS011;6344;49.932;8.308;2022-08-01T01:08:02;2.20;;;2.10;;
12556;SDS011;6344;49.932;8.308;2022-08-01T01:10:30;2.93;;;2.73;;
12556;SDS011;6344;49.932;8.308;2022-08-01T01:12:59;3.03;;;2.73;;
12556;SDS011;6344;49.932;8.308;2022-08-01T01:15:30;2.60;;;2.30;;
12556;SDS011;6344;49.932;8.308;2022-08-01T01:18:02;3.67;;;2.60;;
12556;SDS011;6344;49.932;8.308;2022-08-01T01:20:30;3.13;;;2.83;;
12556;SDS011;6344;49.932;8.308;2022-08-01T01:23:05;2.30;;;2.20;;
12556;SDS011;6344;49.932;8.308;2022-08-01T01:25:40;2.73;;;2.53;;
12556;SDS011;6344;49.932;8.308;2022-08-01T01:28:10;2.50;;;2.30;;
12556;SDS011;6344;49.932;8.308;2022-08-01T01:30:43;2.23;;;2.07;;
12556;SDS011;6344;49.932;8.308;2022-08-01T01:33:11;2.80;;;2.37;;
12556;SDS011;6344;49.932;8.308;2022-08-01T01:35:41;3.17;;;2.80;;
12556;SDS011;6344;49.932;8.308;2022-08-01T01:38:10;2.40;;;2.30;;
12556;SDS011;6344;49.932;8.308;2022-08-01T01:40:39;2.93;;;2.30;;
12556;SDS011;6344;49.932;8.308;2022-08-01T01:43:07;2.47;;;2.37;;
12556;SDS011;6344;49.932;8.308;2022-08-01T01:45:36;2.63;;;2.47;;
12556;SDS011;6344;49.932;8.308;2022-08-01T01:48:05;2.90;;;2.70;;
12556;SDS011;6344;49.932;8.308;2022-08-01T01:50:33;2.70;;;2.47;;
12556;SDS011;6344;49.932;8.308;2022-08-01T01:53:00;2.50;;;2.30;;
12556;SDS011;6344;49.932;8.308;2022-08-01T01:55:28;2.73;;;2.53;;
12556;SDS011;6344;49.932;8.308;2022-08-01T01:57:55;2.70;;;2.50;;
12556;SDS011;6344;49.932;8.308;2022-08-01T02:00:23;2.50;;;2.40;;
12556;SDS011;6344;49.932;8.308;2022-08-01T02:02:51;2.27;;;2.17;;
12556;SDS011;6344;49.932;8.308;2022-08-01T02:05:20;2.70;;;2.17;;
12556;SDS011;6344;49.932;8.308;2022-08-01T02:07:48;2.00;;;1.90;;
12556;SDS011;6344;49.932;8.308;2022-08-01T02:10:15;3.20;;;2.27;;
12556;SDS011;6344;49.932;8.308;2022-08-01T02:12:44;2.77;;;2.57;;
12556;SDS011;6344;49.932;8.308;2022-08-01T02:15:12;2.30;;;2.20;;
12556;SDS011;6344;49.932;8.308;2022-08-01T02:17:41;2.77;;;2.57;;
12556;SDS011;6344;49.932;8.308;2022-08-01T02:20:10;2.50;;;2.30;;
12556;SDS011;6344;49.932;8.308;2022-08-01T02:22:40;3.50;;;2.57;;
12556;SDS011;6344;49.932;8.308;2022-08-01T02:25:10;2.57;;;2.47;;
12556;SDS011;6344;49.932;8.308;2022-08-01T02:27:40;2.30;;;2.10;;
12556;SDS011;6344;49.932;8.308;2022-08-01T02:30:08;3.30;;;2.67;;
12556;SDS011;6344;49.932;8.308;2022-08-01T02:32:40;3.23;;;2.93;;
12556;SDS011;6344;49.932;8.308;2022-08-01T02:35:09;3.37;;;3.03;;
12556;SDS011;6344;49.932;8.308;2022-08-01T02:37:39;2.33;;;2.23;;
12556;SDS011;6344;49.932;8.308;2022-08-01T02:40:08;2.40;;;2.30;;
12556;SDS011;6344;49.932;8.308;2022-08-01T02:42:36;2.20;;;1.90;;
12556;SDS011;6344;49.932;8.308;2022-08-01T02:45:06;3.90;;;2.33;;
12556;SDS011;6344;49.932;8.308;2022-08-01T02:47:34;2.80;;;2.60;;
12556;SDS011;6344;49.932;8.308;2022-08-01T02:50:03;2.57;;;2.00;;
12556;SDS011;6344;49.932;8.308;2022-08-01T02:52:33;2.80;;;2.20;;
12556;SDS011;6344;49.932;8.308;2022-08-01T02:55:02;2.40;;;2.20;;
12556;SDS011;6344;49.932;8.308;2022-08-01T02:57:30;3.00;;;2.67;;
12556;SDS011;6344;49.932;8.308;2022-08-01T02:59:58;2.93;;;2.63;;
12556;SDS011;6344;49.932;8.308;2022-08-01T03:02:25;2.40;;;2.20;;
12556;SDS011;6344;49.932;8.308;2022-08-01T03:04:52;3.83;;;2.70;;
12556;SDS011;6344;49.932;8.308;2022-08-01T03:07:20;5.40;;;2.63;;
12556;SDS011;6344;49.932;8.308;2022-08-01T03:09:49;3.53;;;2.77;;
12556;SDS011;6344;49.932;8.308;2022-08-01T03:12:18;3.03;;;2.83;;
12556;SDS011;6344;49.932;8.308;2022-08-01T03:14:47;3.00;;;2.80;;
12556;SDS011;6344;49.932;8.308;2022-08-01T03:17:14;2.77;;;2.57;;
12556;SDS011;6344;49.932;8.308;2022-08-01T03:19:42;2.80;;;2.70;;
12556;SDS011;6344;49.932;8.308;2022-08-01T03:22:11;3.10;;;2.60;;
12556;SDS011;6344;49.932;8.308;2022-08-01T03:24:40;2.87;;;2.77;;
12556;SDS011;6344;49.932;8.308;2022-08-01T03:27:08;3.50;;;2.60;;
12556;SDS011;6344;49.932;8.308;2022-08-01T03:29:36;4.10;;;2.97;;
12556;SDS011;6344;49.932;8.308;2022-08-01T03:32:04;3.30;;;2.50;;
12556;SDS011;6344;49.932;8.308;2022-08-01T03:34:32;3.20;;;2.90;;
12556;SDS011;6344;49.932;8.308;2022-08-01T03:37:00;3.53;;;3.23;;
12556;SDS011;6344;49.932;8.308;2022-08-01T03:39:30;4.37;;;2.80;;
12556;SDS011;6344;49.932;8.308;2022-08-01T03:41:59;3.03;;;2.80;;
12556;SDS011;6344;49.932;8.308;2022-08-01T03:44:28;2.90;;;2.70;;
12556;SDS011;6344;49.932;8.308;2022-08-01T03:47:02;3.00;;;2.80;;
12556;SDS011;6344;49.932;8.308;2022-08-01T03:49:31;2.90;;;2.70;;
12556;SDS011;6344;49.932;8.308;2022-08-01T03:51:59;2.53;;;2.23;;
12556;SDS011;6344;49.932;8.308;2022-08-01T03:54:30;3.07;;;2.80;;
12556;SDS011;6344;49.932;8.308;2022-08-01T03:56:58;4.57;;;3.70;;
12556;SDS011;6344;49.932;8.308;2022-08-01T03:59:26;5.57;;;3.37;;
12556;SDS011;6344;49.932;8.308;2022-08-01T04:01:53;3.23;;;2.93;;
12556;SDS011;6344;49.932;8.308;2022-08-01T04:04:23;3.10;;;2.90;;
12556;SDS011;6344;49.932;8.308;2022-08-01T04:06:50;3.33;;;3.03;;
12556;SDS011;6344;49.932;8.308;2022-08-01T04:09:19;2.50;;;2.30;;
12556;SDS011;6344;49.932;8.308;2022-08-01T04:11:46;2.90;;;2.70;;
12556;SDS011;6344;49.932;8.308;2022-08-01T04:14:13;2.77;;;2.53;;
12556;SDS011;6344;49.932;8.308;2022-08-01T04:16:40;3.07;;;2.77;;
12556;SDS011;6344;49.932;8.308;2022-08-01T04:19:07;3.70;;;3.30;;
12556;SDS011;6344;49.932;8.308;2022-08-01T04:21:36;2.70;;;2.50;;
12556;SDS011;6344;49.932;8.308;2022-08-01T04:24:05;3.70;;;3.27;;
12556;SDS011;6344;49.932;8.308;2022-08-01T04:26:34;2.57;;;2.40;;
12556;SDS011;6344;49.932;8.308;2022-08-01T04:29:01;2.73;;;2.53;;
12556;SDS011;6344;49.932;8.308;2022-08-01T04:31:29;2.73;;;2.63;;
12556;SDS011;6344;49.932;8.308;2022-08-01T04:33:57;2.60;;;2.40;;
12556;SDS011;6344;49.932;8.308;2022-08-01T04:36:26;2.63;;;2.53;;
12556;SDS011;6344;49.932;8.308;2022-08-01T04:38:57;3.97;;;3.10;;
12556;SDS011;6344;49.932;8.308;2022-08-01T04:41:26;3.60;;;3.30;;
12556;SDS011;6344;49.932;8.308;2022-08-01T04:43:53;2.47;;;2.30;;
12556;SDS011;6344;49.932;8.308;2022-08-01T04:46:21;2.43;;;2.30;;
12556;SDS011;6344;49.932;8.308;2022-08-01T04:48:49;2.20;;;2.10;;
12556;SDS011;6344;49.932;8.308;2022-08-01T04:51:16;2.97;;;2.70;;
12556;SDS011;6344;49.932;8.308;2022-08-01T04:53:47;2.60;;;2.50;;
12556;SDS011;6344;49.932;8.308;2022-08-01T04:56:17;2.80;;;2.60;;
12556;SDS011;6344;49.932;8.308;2022-08-01T04:58:45;3.33;;;2.87;;
12556;SDS011;6344;49.932;8.308;2022-08-01T05:01:12;3.20;;;3.00;;
12556;SDS011;6344;49.932;8.308;2022-08-01T05:03:40;3.80;;;2.80;;
12556;SDS011;6344;49.932;8.308;2022-08-01T05:06:07;2.20;;;2.00;;
12556;SDS011;6344;49.932;8.308;2022-08-01T05:08:35;2.80;;;2.33;;
12556;SDS011;6344;49.932;8.308;2022-08-01T05:11:02;2.33;;;2.23;;
12556;SDS011;6344;49.932;8.308;2022-08-01T05:13:30;2.40;;;2.30;;
12556;SDS011;6344;49.932;8.308;2022-08-01T05:15:57;2.50;;;2.30;;
12556;SDS011;6344;49.932;8.308;2022-08-01T05:18:24;2.83;;;2.50;;
12556;SDS011;6344;49.932;8.308;2022-08-01T05:20:52;2.30;;;2.10;;
12556;SDS011;6344;49.932;8.308;2022-08-01T05:23:19;2.57;;;2.37;;
12556;SDS011;6344;49.932;8.308;2022-08-01T05:25:46;2.60;;;2.50;;
12556;SDS011;6344;49.932;8.308;2022-08-01T05:28:14;3.40;;;2.20;;
12556;SDS011;6344;49.932;8.308;2022-08-01T05:30:43;3.57;;;2.57;;
12556;SDS011;6344;49.932;8.308;2022-08-01T05:33:10;2.60;;;2.40;;
12556;SDS011;6344;49.932;8.308;2022-08-01T05:35:37;3.07;;;2.87;;
12556;SDS011;6344;49.932;8.308;2022-08-01T05:38:04;2.33;;;2.23;;
12556;SDS011;6344;49.932;8.308;2022-08-01T05:40:31;2.20;;;2.10;;
12556;SDS011;6344;49.932;8.308;2022-08-01T05:42:58;3.20;;;2.90;;
12556;SDS011;6344;49.932;8.308;2022-08-01T05:45:25;3.20;;;2.77;;
12556;SDS011;6344;49.932;8.308;2022-08-01T05:47:54;3.00;;;2.30;;
12556;SDS011;6344;49.932;8.308;2022-08-01T05:50:21;2.53;;;2.37;;
12556;SDS011;6344;49.932;8.308;2022-08-01T05:52:48;2.80;;;2.40;;
12556;SDS011;6344;49.932;8.308;2022-08-01T05:55:15;3.20;;;2.50;;
12556;SDS011;6344;49.932;8.308;2022-08-01T05:57:42;2.33;;;2.13;;
12556;SDS011;6344;49.932;8.308;2022-08-01T06:00:10;2.50;;;2.30;;
12556;SDS011;6344;49.932;8.308;2022-08-01T06:02:39;3.07;;;2.87;;
12556;SDS011;6344;49.932;8.308;2022-08-01T06:05:08;3.90;;;2.43;;
12556;SDS011;6344;49.932;8.308;2022-08-01T06:07:36;2.30;;;2.20;;
12556;SDS011;6344;49.932;8.308;2022-08-01T06:10:04;2.67;;;2.47;;
12556;SDS011;6344;49.932;8.308;2022-08-01T06:12:32;2.63;;;2.43;;
12556;SDS011;6344;49.932;8.308;2022-08-01T06:14:59;2.63;;;2.43;;
12556;SDS011;6344;49.932;8.308;2022-08-01T06:17:26;2.70;;;2.50;;
12556;SDS011;6344;49.932;8.308;2022-08-01T06:19:53;2.73;;;2.53;;
12556;SDS011;6344;49.932;8.308;2022-08-01T06:22:22;2.53;;;2.37;;
12556;SDS011;6344;49.932;8.308;2022-08-01T06:24:49;3.00;;;2.80;;
12556;SDS011;6344;49.932;8.308;2022-08-01T06:27:16;2.60;;;2.40;;
12556;SDS011;6344;49.932;8.308;2022-08-01T06:29:43;2.83;;;2.63;;
12556;SDS011;6344;49.932;8.308;2022-08-01T06:32:10;2.40;;;2.30;;
12556;SDS011;6344;49.932;8.308;2022-08-01T06:34:37;4.50;;;2.70;;
12556;SDS011;6344;49.932;8.308;2022-08-01T06:37:05;3.53;;;2.50;;
12556;SDS011;6344;49.932;8.308;2022-08-01T06:39:33;2.60;;;2.40;;
12556;SDS011;6344;49.932;8.308;2022-08-01T06:42:00;2.37;;;2.27;;
12556;SDS011;6344;49.932;8.308;2022-08-01T06:44:27;2.57;;;2.47;;
12556;SDS011;6344;49.932;8.308;2022-08-01T06:46:54;2.50;;;2.40;;
12556;SDS011;6344;49.932;8.308;2022-08-01T06:49:23;3.43;;;2.60;;
12556;SDS011;6344;49.932;8.308;2022-08-01T06:51:50;2.83;;;2.73;;
12556;SDS011;6344;49.932;8.308;2022-08-01T06:54:17;2.77;;;2.57;;
12556;SDS011;6344;49.932;8.308;2022-08-01T06:56:46;3.20;;;3.00;;
12556;SDS011;6344;49.932;8.308;2022-08-01T06:59:13;2.80;;;2.70;;
12556;SDS011;6344;49.932;8.308;2022-08-01T07:01:40;3.17;;;2.97;;
12556;SDS011;6344;49.932;8.308;2022-08-01T07:04:07;3.57;;;3.27;;
12556;SDS011;6344;49.932;8.308;2022-08-01T07:06:34;3.40;;;3.00;;
12556;SDS011;6344;49.932;8.308;2022-08-01T07:09:01;3.13;;;2.93;;
12556;SDS011;6344;49.932;8.308;2022-08-01T07:11:28;3.70;;;3.50;;
12556;SDS011;6344;49.932;8.308;2022-08-01T07:13:57;3.30;;;3.00;;
12556;SDS011;6344;49.932;8.308;2022-08-01T07:16:25;3.47;;;3.20;;
12556;SDS011;6344;49.932;8.308;2022-08-01T07:18:52;3.37;;;3.17;;
12556;SDS011;6344;49.932;8.308;2022-08-01T07:21:19;3.30;;;3.00;;
12556;SDS011;6344;49.932;8.308;2022-08-01T07:23:46;3.00;;;2.80;;
12556;SDS011;6344;49.932;8.308;2022-08-01T07:26:13;3.60;;;3.40;;
12556;SDS011;6344;49.932;8.308;2022-08-01T07:28:40;3.10;;;2.90;;
12556;SDS011;6344;49.932;8.308;2022-08-01T07:31:09;3.83;;;3.53;;
12556;SDS011;6344;49.932;8.308;2022-08-01T07:33:36;4.13;;;3.80;;
12556;SDS011;6344;49.932;8.308;2022-08-01T07:36:03;3.47;;;3.27;;
12556;SDS011;6344;49.932;8.308;2022-08-01T07:38:30;3.20;;;3.00;;
12556;SDS011;6344;49.932;8.308;2022-08-01T07:40:57;3.13;;;2.93;;
12556;SDS011;6344;49.932;8.308;2022-08-01T07:43:25;2.90;;;2.80;;
12556;SDS011;6344;49.932;8.308;2022-08-01T07:45:52;3.20;;;3.00;;
12556;SDS011;6344;49.932;8.308;2022-08-01T07:48:20;2.93;;;2.83;;
12556;SDS011;6344;49.932;8.308;2022-08-01T07:50:48;3.10;;;3.00;;
12556;SDS011;6344;49.932;8.308;2022-08-01T07:53:16;3.50;;;3.30;;
12556;SDS011;6344;49.932;8.308;2022-08-01T07:55:43;3.50;;;3.30;;
12556;SDS011;6344;49.932;8.308;2022-08-01T07:58:10;3.03;;;2.93;;
12556;SDS011;6344;49.932;8.308;2022-08-01T08:00:37;3.50;;;3.30;;
12556;SDS011;6344;49.932;8.308;2022-08-01T08:03:04;3.60;;;3.40;;
12556;SDS011;6344;49.932;8.308;2022-08-01T08:05:33;3.77;;;3.47;;
12556;SDS011;6344;49.932;8.308;2022-08-01T08:08:00;3.50;;;3.30;;
12556;SDS011;6344;49.932;8.308;2022-08-01T08:10:27;3.40;;;3.20;;
12556;SDS011;6344;49.932;8.308;2022-08-01T08:12:54;3.60;;;3.40;;
12556;SDS011;6344;49.932;8.308;2022-08-01T08:15:21;3.87;;;3.57;;
12556;SDS011;6344;49.932;8.308;2022-08-01T08:17:49;3.43;;;3.23;;
12556;SDS011;6344;49.932;8.308;2022-08-01T08:20:16;3.30;;;3.20;;
12556;SDS011;6344;49.932;8.308;2022-08-01T08:22:44;4.03;;;3.67;;
12556;SDS011;6344;49.932;8.308;2022-08-01T08:25:11;4.10;;;3.80;;
12556;SDS011;6344;49.932;8.308;2022-08-01T08:27:38;3.70;;;3.50;;
12556;SDS011;6344;49.932;8.308;2022-08-01T08:30:06;3.83;;;3.63;;
12556;SDS011;6344;49.932;8.308;2022-08-01T08:32:33;3.70;;;3.50;;
12556;SDS011;6344;49.932;8.308;2022-08-01T08:35:00;3.87;;;3.53;;
12556;SDS011;6344;49.932;8.308;2022-08-01T08:37:27;4.00;;;3.70;;
12556;SDS011;6344;49.932;8.308;2022-08-01T08:39:56;4.63;;;3.90;;
12556;SDS011;6344;49.932;8.308;2022-08-01T08:42:23;3.80;;;3.60;;
12556;SDS011;6344;49.932;8.308;2022-08-01T08:44:50;3.90;;;3.70;;
12556;SDS011;6344;49.932;8.308;2022-08-01T08:47:19;4.30;;;4.10;;
12556;SDS011;6344;49.932;8.308;2022-08-01T08:49:49;3.60;;;3.40;;
12556;SDS011;6344;49.932;8.308;2022-08-01T08:52:17;3.90;;;3.70;;
12556;SDS011;6344;49.932;8.308;2022-08-01T08:54:46;3.70;;;3.50;;
12556;SDS011;6344;49.932;8.308;2022-08-01T08:57:14;5.20;;;3.50;;
12556;SDS011;6344;49.932;8.308;2022-08-01T08:59:42;3.70;;;3.50;;
12556;SDS011;6344;49.932;8.308;2022-08-01T09:02:09;3.67;;;3.47;;
12556;SDS011;6344;49.932;8.308;2022-08-01T09:04:37;3.80;;;3.60;;
12556;SDS011;6344;49.932;8.308;2022-08-01T09:07:05;3.67;;;3.43;;
12556;SDS011;6344;49.932;8.308;2022-08-01T09:09:33;3.87;;;3.67;;
12556;SDS011;6344;49.932;8.308;2022-08-01T09:12:00;3.43;;;3.27;;
12556;SDS011;6344;49.932;8.308;2022-08-01T09:14:29;3.80;;;3.50;;
12556;SDS011;6344;49.932;8.308;2022-08-01T09:16:59;3.40;;;3.30;;
12556;SDS011;6344;49.932;8.308;2022-08-01T09:19:34;3.03;;;2.83;;
12556;SDS011;6344;49.932;8.308;2022-08-01T09:22:02;4.17;;;3.97;;
12556;SDS011;6344;49.932;8.308;2022-08-01T09:24:30;3.97;;;3.67;;
12556;SDS011;6344;49.932;8.308;2022-08-01T09:26:58;3.93;;;3.63;;
12556;SDS011;6344;49.932;8.308;2022-08-01T09:29:27;4.07;;;3.47;;
12556;SDS011;6344;49.932;8.308;2022-08-01T09:31:55;4.23;;;3.93;;
12556;SDS011;6344;49.932;8.308;2022-08-01T09:34:25;3.40;;;3.20;;
12556;SDS011;6344;49.932;8.308;2022-08-01T09:36:52;3.60;;;3.40;;
12556;SDS011;6344;49.932;8.308;2022-08-01T09:39:21;3.73;;;3.53;;
12556;SDS011;6344;49.932;8.308;2022-08-01T09:41:48;4.00;;;3.80;;
12556;SDS011;6344;49.932;8.308;2022-08-01T09:44:16;3.50;;;3.30;;
12556;SDS011;6344;49.932;8.308;2022-08-01T09:46:50;3.40;;;3.20;;
12556;SDS011;6344;49.932;8.308;2022-08-01T09:49:28;5.03;;;4.50;;
12556;SDS011;6344;49.932;8.308;2022-08-01T09:51:56;4.10;;;3.90;;
12556;SDS011;6344;49.932;8.308;2022-08-01T09:54:28;5.40;;;3.87;;
12556;SDS011;6344;49.932;8.308;2022-08-01T09:56:56;3.83;;;3.63;;
12556;SDS011;6344;49.932;8.308;2022-08-01T09:59:34;3.83;;;3.63;;
12556;SDS011;6344;49.932;8.308;2022-08-01T10:02:02;4.23;;;4.03;;
12556;SDS011;6344;49.932;8.308;2022-08-01T10:04:30;4.10;;;3.87;;
12556;SDS011;6344;49.932;8.308;2022-08-01T10:07:03;4.17;;;3.97;;
12556;SDS011;6344;49.932;8.308;2022-08-01T10:09:31;4.23;;;4.03;;
12556;SDS011;6344;49.932;8.308;2022-08-01T10:11:59;4.60;;;4.37;;
12556;SDS011;6344;49.932;8.308;2022-08-01T10:14:26;4.20;;;3.90;;
12556;SDS011;6344;49.932;8.308;2022-08-01T10:16:56;3.57;;;3.37;;
12556;SDS011;6344;49.932;8.308;2022-08-01T10:19:24;4.27;;;3.97;;
12556;SDS011;6344;49.932;8.308;2022-08-01T10:21:53;3.90;;;3.60;;
12556;SDS011;6344;49.932;8.308;2022-08-01T10:24:21;3.23;;;3.13;;
12556;SDS011;6344;49.932;8.308;2022-08-01T10:26:51;3.87;;;3.67;;
12556;SDS011;6344;49.932;8.308;2022-08-01T10:29:20;4.10;;;3.90;;
12556;SDS011;6344;49.932;8.308;2022-08-01T10:31:47;3.83;;;3.63;;
12556;SDS011;6344;49.932;8.308;2022-08-01T10:34:14;3.37;;;3.27;;
12556;SDS011;6344;49.932;8.308;2022-08-01T10:36:44;3.97;;;3.67;;
12556;SDS011;6344;49.932;8.308;2022-08-01T10:39:13;3.80;;;3.60;;
12556;SDS011;6344;49.932;8.308;2022-08-01T10:41:42;3.80;;;3.60;;
12556;SDS011;6344;49.932;8.308;2022-08-01T10:44:09;3.77;;;3.57;;
12556;SDS011;6344;49.932;8.308;2022-08-01T10:46:37;3.97;;;3.77;;
12556;SDS011;6344;49.932;8.308;2022-08-01T10:49:06;4.20;;;3.90;;
12556;SDS011;6344;49.932;8.308;2022-08-01T10:51:34;3.57;;;3.37;;
12556;SDS011;6344;49.932;8.308;2022-08-01T10:54:02;3.87;;;3.57;;
12556;SDS011;6344;49.932;8.308;2022-08-01T10:56:39;4.20;;;4.00;;
12556;SDS011;6344;49.932;8.308;2022-08-01T10:59:06;4.10;;;3.90;;
12556;SDS011;6344;49.932;8.308;2022-08-01T11:01:33;3.70;;;3.50;;
12556;SDS011;6344;49.932;8.308;2022-08-01T11:04:05;4.23;;;4.03;;
12556;SDS011;6344;49.932;8.308;2022-08-01T11:06:40;3.00;;;2.90;;
12556;SDS011;6344;49.932;8.308;2022-08-01T11:11:58;3.60;;;3.30;;
12556;SDS011;6344;49.932;8.308;2022-08-01T11:14:25;3.40;;;3.20;;
12556;SDS011;6344;49.932;8.308;2022-08-01T11:16:52;3.73;;;3.53;;
12556;SDS011;6344;49.932;8.308;2022-08-01T11:19:19;3.43;;;3.10;;
12556;SDS011;6344;49.932;8.308;2022-08-01T11:21:59;3.13;;;3.03;;
12556;SDS011;6344;49.932;8.308;2022-08-01T11:27:20;3.30;;;3.20;;
12556;SDS011;6344;49.932;8.308;2022-08-01T11:32:30;2.70;;;2.60;;
12556;SDS011;6344;49.932;8.308;2022-08-01T11:34:57;3.40;;;3.20;;
12556;SDS011;6344;49.932;8.308;2022-08-01T11:37:24;3.53;;;3.33;;
12556;SDS011;6344;49.932;8.308;2022-08-01T11:42:34;3.23;;;3.13;;
12556;SDS011;6344;49.932;8.308;2022-08-01T11:45:02;3.07;;;2.87;;
12556;SDS011;6344;49.932;8.308;2022-08-01T11:47:43;3.33;;;3.13;;
12556;SDS011;6344;49.932;8.308;2022-08-01T11:52:56;2.90;;;2.80;;
12556;SDS011;6344;49.932;8.308;2022-08-01T11:55:24;3.27;;;3.17;;
12556;SDS011;6344;49.932;8.308;2022-08-01T11:57:52;3.27;;;3.07;;
12556;SDS011;6344;49.932;8.308;2022-08-01T12:00:25;3.33;;;3.13;;
12556;SDS011;6344;49.932;8.308;2022-08-01T12:02:56;3.00;;;2.90;;
12556;SDS011;6344;49.932;8.308;2022-08-01T12:05:23;3.17;;;3.07;;
12556;SDS011;6344;49.932;8.308;2022-08-01T12:07:50;3.50;;;3.40;;
12556;SDS011;6344;49.932;8.308;2022-08-01T12:10:18;3.50;;;3.30;;
12556;SDS011;6344;49.932;8.308;2022-08-01T12:12:46;4.60;;;3.83;;
12556;SDS011;6344;49.932;8.308;2022-08-01T12:15:15;3.43;;;3.23;;
12556;SDS011;6344;49.932;8.308;2022-08-01T12:17:43;2.90;;;2.80;;
12556;SDS011;6344;49.932;8.308;2022-08-01T12:20:11;5.13;;;4.63;;
12556;SDS011;6344;49.932;8.308;2022-08-01T12:22:39;3.07;;;2.87;;
12556;SDS011;6344;49.932;8.308;2022-08-01T12:25:06;4.03;;;3.63;;
12556;SDS011;6344;49.932;8.308;2022-08-01T12:27:34;3.47;;;3.27;;
12556;SDS011;6344;49.932;8.308;2022-08-01T12:30:03;3.47;;;3.27;;
12556;SDS011;6344;49.932;8.308;2022-08-01T12:32:33;3.67;;;3.47;;
12556;SDS011;6344;49.932;8.308;2022-08-01T12:35:02;3.47;;;3.27;;
12556;SDS011;6344;49.932;8.308;2022-08-01T12:37:30;3.20;;;3.10;;
12556;SDS011;6344;49.932;8.308;2022-08-01T12:39:57;3.30;;;3.10;;
12556;SDS011;6344;49.932;8.308;2022-08-01T12:42:25;3.40;;;3.20;;
12556;SDS011;6344;49.932;8.308;2022-08-01T12:44:53;3.23;;;3.13;;
12556;SDS011;6344;49.932;8.308;2022-08-01T12:47:21;3.13;;;2.93;;
12556;SDS011;6344;49.932;8.308;2022-08-01T12:49:51;3.30;;;3.10;;
12556;SDS011;6344;49.932;8.308;2022-08-01T12:52:18;3.40;;;3.20;;
12556;SDS011;6344;49.932;8.308;2022-08-01T12:55:03;3.43;;;3.23;;
12556;SDS011;6344;49.932;8.308;2022-08-01T12:57:31;3.10;;;3.00;;
12556;SDS011;6344;49.932;8.308;2022-08-01T13:00:08;3.40;;;3.20;;
12556;SDS011;6344;49.932;8.308;2022-08-01T13:02:45;3.00;;;2.90;;
12556;SDS011;6344;49.932;8.308;2022-08-01T13:05:14;3.30;;;3.10;;
12556;SDS011;6344;49.932;8.308;2022-08-01T13:07:42;3.50;;;3.30;;
12556;SDS011;6344;49.932;8.308;2022-08-01T13:10:10;3.20;;;3.10;;
12556;SDS011;6344;49.932;8.308;2022-08-01T13:12:37;3.47;;;3.27;;
12556;SDS011;6344;49.932;8.308;2022-08-01T13:15:16;3.10;;;3.00;;
12556;SDS011;6344;49.932;8.308;2022-08-01T13:17:43;3.20;;;3.03;;
12556;SDS011;6344;49.932;8.308;2022-08-01T13:20:10;3.27;;;3.07;;
12556;SDS011;6344;49.932;8.308;2022-08-01T13:22:48;3.10;;;3.00;;
12556;SDS011;6344;49.932;8.308;2022-08-01T13:25:16;3.20;;;3.10;;
12556;SDS011;6344;49.932;8.308;2022-08-01T13:27:44;3.87;;;3.53;;
12556;SDS011;6344;49.932;8.308;2022-08-01T13:30:12;4.80;;;3.30;;
12556;SDS011;6344;49.932;8.308;2022-08-01T13:32:39;3.27;;;3.10;;
12556;SDS011;6344;49.932;8.308;2022-08-01T13:35:08;3.60;;;3.30;;
12556;SDS011;6344;49.932;8.308;2022-08-01T13:37:37;3.50;;;3.20;;
12556;SDS011;6344;49.932;8.308;2022-08-01T13:40:06;3.30;;;3.10;;
12556;SDS011;6344;49.932;8.308;2022-08-01T13:42:34;3.10;;;2.90;;
12556;SDS011;6344;49.932;8.308;2022-08-01T13:45:01;3.00;;;2.80;;
12556;SDS011;6344;49.932;8.308;2022-08-01T13:47:28;3.00;;;2.90;;
12556;SDS011;6344;49.932;8.308;2022-08-01T13:49:56;3.27;;;3.07;;
12556;SDS011;6344;49.932;8.308;2022-08-01T13:52:25;2.90;;;2.80;;
12556;SDS011;6344;49.932;8.308;2022-08-01T13:54:52;3.00;;;2.80;;
12556;SDS011;6344;49.932;8.308;2022-08-01T13:57:20;3.40;;;3.13;;
12556;SDS011;6344;49.932;8.308;2022-08-01T13:59:48;3.20;;;3.00;;
12556;SDS011;6344;49.932;8.308;2022-08-01T14:02:16;2.70;;;2.60;;
12556;SDS011;6344;49.932;8.308;2022-08-01T14:04:43;2.87;;;2.70;;
12556;SDS011;6344;49.932;8.308;2022-08-01T14:07:10;3.30;;;3.10;;
12556;SDS011;6344;49.932;8.308;2022-08-01T14:09:37;3.30;;;3.10;;
12556;SDS011;6344;49.932;8.308;2022-08-01T14:12:05;2.80;;;2.70;;
12556;SDS011;6344;49.932;8.308;2022-08-01T14:14:33;2.90;;;2.70;;
12556;SDS011;6344;49.932;8.308;2022-08-01T14:17:01;2.53;;;2.40;;
12556;SDS011;6344;49.932;8.308;2022-08-01T14:19:28;3.03;;;2.83;;
12556;SDS011;6344;49.932;8.308;2022-08-01T14:21:55;3.50;;;3.30;;
12556;SDS011;6344;49.932;8.308;2022-08-01T14:24:23;2.73;;;2.63;;
12556;SDS011;6344;49.932;8.308;2022-08-01T14:26:51;3.23;;;3.13;;
12556;SDS011;6344;49.932;8.308;2022-08-01T14:29:18;3.13;;;3.03;;
12556;SDS011;6344;49.932;8.308;2022-08-01T14:31:46;2.70;;;2.50;;
12556;SDS011;6344;49.932;8.308;2022-08-01T14:34:13;3.80;;;3.60;;
12556;SDS011;6344;49.932;8.308;2022-08-01T14:36:42;3.60;;;3.40;;
12556;SDS011;6344;49.932;8.308;2022-08-01T14:39:09;4.03;;;3.73;;
12556;SDS011;6344;49.932;8.308;2022-08-01T14:41:37;4.77;;;4.47;;
12556;SDS011;6344;49.932;8.308;2022-08-01T14:44:04;3.53;;;3.33;;
12556;SDS011;6344;49.932;8.308;2022-08-01T14:46:32;4.37;;;4.13;;
12556;SDS011;6344;49.932;8.308;2022-08-01T14:49:00;5.00;;;4.70;;
12556;SDS011;6344;49.932;8.308;2022-08-01T14:51:27;4.90;;;4.37;;
12556;SDS011;6344;49.932;8.308;2022-08-01T14:53:58;5.60;;;4.43;;
12556;SDS011;6344;49.932;8.308;2022-08-01T14:56:25;4.13;;;3.60;;
12556;SDS011;6344;49.932;8.308;2022-08-01T14:58:52;3.87;;;3.57;;
12556;SDS011;6344;49.932;8.308;2022-08-01T15:01:19;4.37;;;3.87;;
12556;SDS011;6344;49.932;8.308;2022-08-01T15:03:46;4.40;;;4.10;;
12556;SDS011;6344;49.932;8.308;2022-08-01T15:06:16;5.10;;;4.40;;
12556;SDS011;6344;49.932;8.308;2022-08-01T15:08:43;4.87;;;4.40;;
12556;SDS011;6344;49.932;8.308;2022-08-01T15:11:10;5.37;;;4.87;;
12556;SDS011;6344;49.932;8.308;2022-08-01T15:13:37;5.80;;;4.27;;
12556;SDS011;6344;49.932;8.308;2022-08-01T15:16:05;4.60;;;4.30;;
12556;SDS011;6344;49.932;8.308;2022-08-01T15:18:32;5.83;;;4.20;;
12556;SDS011;6344;49.932;8.308;2022-08-01T15:20:59;5.30;;;5.00;;